»·PEaware :: SWA4283 KLAX-KSMF

SWA4283 :: KLAX-KSMF

FLIGHT INFORMATION

Flight Status: Arrived
Operator:
Southwest Airlines
More flights by this operator :: More flights under this callsign
Pilot: Andrew M. (139)
Aircraft: BOEING 737-800
(B738)
More flights by this aircraft type
Origin: KLAX Los Angeles Intl
United States
Destination: KSMF Sacramento Intl
United States
More flights between these airports :: More routes between these airports
Route: LADYJ4 CSTRO NURAY SUUTR2
File this flight plan on PilotEdge
Remarks: PBN / A1B1C1D1S1S2 NAV / RNVD1E2A1 REG / N608BT EET / KZOA0023 RMK / SIMBRIEF
Altitude:
(Current/Filed)
36,000ft
Speed:
(Current/Filed)
445kts
Departed: 23-Jan-19 08:06 PM
Arrived: 23-Jan-19 09:10 PM
Distance/Time
Traveled:
324nm/1:04
Distance/Time
To Go:
Arrived

Flight Plot

Page will automatically refresh every two minutes.

Flight plan parsing failed; only flown route is shown


Map Options




Map Legend


Flown Route
Filed Route
Departure Airport
Arrival Airport
Navaid (VOR, NDB)
Fix

Horizontal Profiles

Position Reports

Time Latitude Longitude Heading Altitude Ground
Speed
23-Jan-19 19:34 33.941301 -118.402603 69 119ft 0kts
23-Jan-19 19:35 33.941301 -118.402603 69 119ft 0kts
23-Jan-19 19:36 33.941301 -118.402603 69 119ft 0kts
23-Jan-19 19:37 33.941301 -118.402603 69 119ft 0kts
23-Jan-19 19:38 33.941301 -118.402603 69 119ft 0kts
23-Jan-19 19:39 33.941301 -118.402603 69 119ft 0kts
23-Jan-19 19:40 33.941301 -118.402603 69 119ft 0kts
23-Jan-19 19:41 33.941301 -118.402603 69 119ft 0kts
23-Jan-19 19:42 33.941301 -118.402603 69 119ft 0kts
23-Jan-19 19:43 33.941301 -118.402603 69 119ft 0kts
23-Jan-19 19:44 33.941301 -118.402603 69 119ft 0kts
23-Jan-19 19:45 33.941301 -118.402603 69 119ft 0kts
23-Jan-19 19:46 33.941301 -118.402603 69 119ft 0kts
23-Jan-19 19:47 33.941301 -118.402603 69 119ft 0kts
23-Jan-19 19:48 33.941301 -118.402603 69 119ft 0kts
23-Jan-19 19:49 33.941287 -118.402644 69 119ft 2kts
23-Jan-19 19:50 33.941261 -118.403254 164 119ft 1kts
23-Jan-19 19:52 33.941354 -118.403268 174 119ft 0kts
23-Jan-19 19:52 33.941354 -118.403268 174 119ft 0kts
23-Jan-19 19:53 33.941354 -118.403268 174 119ft 0kts
23-Jan-19 19:54 33.941354 -118.403268 174 119ft 0kts
23-Jan-19 19:55 33.940229 -118.403101 173 119ft 9kts
23-Jan-19 19:56 33.939474 -118.401214 82 118ft 11kts
23-Jan-19 19:57 33.939167 -118.397667 123 112ft 8kts
23-Jan-19 19:58 33.939417 -118.393802 83 107ft 15kts
23-Jan-19 19:59 33.939949 -118.388491 83 103ft 16kts
23-Jan-19 20:00 33.940453 -118.383547 83 100ft 16kts
23-Jan-19 20:01 33.940708 -118.380749 100 99ft 0kts
23-Jan-19 20:02 33.940708 -118.380749 100 99ft 0kts
23-Jan-19 20:03 33.940708 -118.380749 100 99ft 0kts
23-Jan-19 20:04 33.940608 -118.380444 121 99ft 5kts
23-Jan-19 20:05 33.939642 -118.382117 262 99ft 46kts
23-Jan-19 20:06 33.935677 -118.426158 262 1373ft 166kts
23-Jan-19 20:07 33.929260 -118.485892 265 2943ft 217kts
23-Jan-19 20:08 33.922473 -118.568854 267 5147ft 266kts
23-Jan-19 20:09 33.947692 -118.647149 326 6004ft 255kts
23-Jan-19 20:10 34.010903 -118.678482 0 6902ft 256kts
23-Jan-19 20:11 34.082740 -118.671978 4 9014ft 260kts
23-Jan-19 20:12 34.155973 -118.653899 9 11063ft 297kts
23-Jan-19 20:13 34.238649 -118.634909 2 13934ft 312kts
23-Jan-19 20:14 34.324972 -118.650094 346 16833ft 319kts
23-Jan-19 20:15 34.414030 -118.670653 345 19651ft 335kts
23-Jan-19 20:16 34.508126 -118.689825 346 22150ft 353kts
23-Jan-19 20:17 34.607236 -118.709297 345 24425ft 369kts
23-Jan-19 20:18 34.710285 -118.730796 338 26626ft 377kts
23-Jan-19 20:19 34.803606 -118.788850 326 28598ft 382kts
23-Jan-19 20:20 34.897592 -118.853124 326 30417ft 393kts
23-Jan-19 20:21 34.993270 -118.919071 325 32470ft 393kts
23-Jan-19 20:22 35.087242 -118.984034 325 34479ft 386kts
23-Jan-19 20:24 35.194893 -119.058662 325 36250ft 383kts
23-Jan-19 20:24 35.274366 -119.113963 325 36319ft 396kts
23-Jan-19 20:25 35.369814 -119.180425 325 36318ft 396kts
23-Jan-19 20:26 35.467788 -119.243487 334 36355ft 402kts
23-Jan-19 20:27 35.574144 -119.286269 336 36371ft 404kts
23-Jan-19 20:29 35.698822 -119.336159 336 36370ft 403kts
23-Jan-19 20:29 35.787618 -119.371853 335 36369ft 404kts
23-Jan-19 20:30 35.894341 -119.414882 335 36370ft 404kts
23-Jan-19 20:31 36.001113 -119.458063 335 36375ft 404kts
23-Jan-19 20:32 36.104881 -119.500118 335 36375ft 402kts
23-Jan-19 20:33 36.211263 -119.543373 335 36379ft 402kts
23-Jan-19 20:34 36.317449 -119.586685 335 36377ft 402kts
23-Jan-19 20:35 36.423714 -119.630187 335 36376ft 402kts
23-Jan-19 20:36 36.526741 -119.672563 335 36387ft 400kts
23-Jan-19 20:37 36.627879 -119.725263 322 36381ft 390kts
23-Jan-19 20:38 36.719018 -119.796991 322 36376ft 388kts
23-Jan-19 20:39 36.809289 -119.868047 322 36375ft 387kts
23-Jan-19 20:40 36.900218 -119.939834 322 36373ft 385kts
23-Jan-19 20:41 36.990793 -120.011482 322 36370ft 387kts
23-Jan-19 20:42 37.081984 -120.083753 322 36371ft 386kts
23-Jan-19 20:43 37.169148 -120.152935 322 34097ft 384kts
23-Jan-19 20:44 37.259675 -120.225036 322 30596ft 391kts
23-Jan-19 20:45 37.349986 -120.297081 323 27745ft 377kts
23-Jan-19 20:46 37.435944 -120.365842 324 25447ft 353kts
23-Jan-19 20:47 37.513960 -120.435616 319 24000ft 348kts
23-Jan-19 20:48 37.587665 -120.510449 320 21723ft 330kts
23-Jan-19 20:49 37.657752 -120.581078 320 20530ft 322kts
23-Jan-19 20:50 37.726950 -120.650752 320 19486ft 317kts
23-Jan-19 20:51 37.795149 -120.719809 320 19365ft 316kts
23-Jan-19 20:52 37.863650 -120.789290 320 18689ft 312kts
23-Jan-19 20:53 37.930998 -120.857770 321 16145ft 312kts
23-Jan-19 20:54 37.995229 -120.923188 321 14717ft 281kts
23-Jan-19 20:55 38.058132 -120.987329 321 12989ft 286kts
23-Jan-19 20:56 38.111470 -121.057059 312 11674ft 286kts
23-Jan-19 20:57 38.163399 -121.134085 312 10846ft 296kts
23-Jan-19 20:58 38.214782 -121.210391 312 9582ft 272kts
23-Jan-19 20:59 38.263668 -121.279506 314 8425ft 254kts
23-Jan-19 21:00 38.309524 -121.344026 314 7373ft 238kts
23-Jan-19 21:01 38.353477 -121.405960 314 6387ft 229kts
23-Jan-19 21:02 38.395510 -121.465306 314 5481ft 223kts
23-Jan-19 21:03 38.436901 -121.523821 314 4614ft 221kts
23-Jan-19 21:04 38.477557 -121.581431 314 3749ft 212kts
23-Jan-19 21:05 38.530291 -121.605976 3 2580ft 210kts
23-Jan-19 21:06 38.585203 -121.603702 1 1738ft 170kts
23-Jan-19 21:07 38.627762 -121.602814 359 1133ft 142kts
23-Jan-19 21:08 38.667368 -121.601696 358 416ft 142kts
23-Jan-19 21:09 38.699352 -121.601194 1 27ft 40kts
23-Jan-19 21:10 38.701264 -121.599984 91 27ft 4kts

Navigation Log

Ident Type
Flight plan parsing failed, navigation log unavailable